Time;durP1;ratioP1;P1;durP2;ratioP2;P2;SDS_P1;SDS_P2;PMS_P1;PMS_P2;Temp;Humidity;BMP_temperature;BMP_pressure;BME280_temperature;BME280_humidity;BME280_pressure;Samples;Min_cycle;Max_cycle;Signal;HPM_P1;HPM_P2
2023/03/02 00:01:25;;;;;;;42.45;9.10;;;;;;;;;;5093227;28;20066;-67
2023/03/02 00:03:51;;;;;;;57.15;8.73;;;;;;;;;;5094377;28;20036;-66
2023/03/02 00:06:17;;;;;;;54.67;9.60;;;;;;;;;;5092886;28;20028;-67
2023/03/02 00:08:44;;;;;;;59.50;9.55;;;;;;;;;;5073991;28;20418;-66
2023/03/02 00:11:10;;;;;;;36.65;10.02;;;;;;;;;;5073960;28;20024;-69
2023/03/02 00:13:37;;;;;;;36.13;11.55;;;;;;;;;;5073656;28;20114;-68
2023/03/02 00:16:03;;;;;;;36.88;9.88;;;;;;;;;;5073773;28;20060;-68
2023/03/02 00:18:28;;;;;;;29.10;9.65;;;;;;;;;;5073975;28;20454;-68
2023/03/02 00:20:54;;;;;;;28.52;10.57;;;;;;;;;;5074161;28;20017;-68
2023/03/02 00:23:19;;;;;;;29.55;11.27;;;;;;;;;;5073920;28;20455;-68
2023/03/02 00:25:45;;;;;;;54.80;15.50;;;;;;;;;;5073647;28;20025;-68
2023/03/02 00:28:10;;;;;;;70.65;19.17;;;;;;;;;;5072304;28;20463;-68
2023/03/02 00:30:37;;;;;;;51.40;16.05;;;;;;;;;;5073639;28;20089;-67
2023/03/02 00:33:03;;;;;;;49.42;15.60;;;;;;;;;;5073284;28;20036;-67
2023/03/02 00:35:28;;;;;;;51.40;15.27;;;;;;;;;;5073507;28;20028;-68
2023/03/02 00:37:53;;;;;;;49.10;16.45;;;;;;;;;;5073613;28;20017;-68
2023/03/02 00:40:19;;;;;;;44.72;14.63;;;;;;;;;;5073669;28;20477;-67
2023/03/02 00:42:44;;;;;;;55.03;17.05;;;;;;;;;;5073385;28;20113;-69
2023/03/02 00:45:10;;;;;;;54.03;16.88;;;;;;;;;;5073403;28;20108;-69
2023/03/02 00:47:36;;;;;;;63.95;16.13;;;;;;;;;;5073314;28;20107;-66
2023/03/02 00:50:03;;;;;;;58.45;15.27;;;;;;;;;;5073337;28;20051;-67
2023/03/02 00:52:33;;;;;;;48.33;14.25;;;;;;;;;;5073476;28;20472;-68
2023/03/02 00:54:58;;;;;;;53.55;15.40;;;;;;;;;;5073300;28;20041;-67
2023/03/02 00:57:24;;;;;;;56.72;13.88;;;;;;;;;;5073017;28;20039;-66
2023/03/02 00:59:50;;;;;;;47.13;13.77;;;;;;;;;;5073245;28;20024;-67
2023/03/02 01:02:15;;;;;;;42.28;13.05;;;;;;;;;;5073328;28;20080;-68
2023/03/02 01:04:42;;;;;;;53.80;12.88;;;;;;;;;;5073133;28;20024;-67
2023/03/02 01:07:15;;;;;;;57.20;14.82;;;;;;;;;;5087812;28;20370;-67
2023/03/02 01:09:42;;;;;;;60.60;13.23;;;;;;;;;;5093435;28;20158;-67
2023/03/02 01:12:10;;;;;;;58.47;13.88;;;;;;;;;;5092997;28;20063;-68
2023/03/02 01:14:41;;;;;;;61.33;12.98;;;;;;;;;;5093114;28;20043;-69
2023/03/02 01:17:08;;;;;;;45.92;12.55;;;;;;;;;;5092916;28;20034;-67
2023/03/02 01:19:34;;;;;;;55.58;12.32;;;;;;;;;;5093264;28;20085;-68
2023/03/02 01:22:00;;;;;;;55.67;11.90;;;;;;;;;;5093289;28;20412;-67
2023/03/02 01:24:25;;;;;;;45.55;11.43;;;;;;;;;;5093036;28;20069;-68
2023/03/02 01:26:51;;;;;;;32.70;11.23;;;;;;;;;;5076083;28;20046;-67
2023/03/02 01:29:16;;;;;;;43.47;10.95;;;;;;;;;;5072900;28;20024;-67
2023/03/02 01:31:42;;;;;;;45.78;11.95;;;;;;;;;;5073006;28;20059;-68
2023/03/02 01:34:07;;;;;;;49.00;11.32;;;;;;;;;;5072982;28;20020;-68
2023/03/02 01:36:33;;;;;;;32.22;11.02;;;;;;;;;;5072706;28;20033;-68
2023/03/02 01:38:58;;;;;;;31.48;10.85;;;;;;;;;;5072743;28;20028;-67
2023/03/02 01:41:24;;;;;;;33.92;10.95;;;;;;;;;;5072911;28;20031;-68
2023/03/02 01:43:49;;;;;;;47.30;11.60;;;;;;;;;;5072839;28;20033;-67
2023/03/02 01:46:19;;;;;;;37.50;11.38;;;;;;;;;;5075544;28;20083;-68
2023/03/02 01:49:06;;;;;;;55.65;13.30;;;;;;;;;;5077043;28;20031;-68
2023/03/02 01:51:35;;;;;;;39.70;10.38;;;;;;;;;;5077008;28;20404;-68
2023/03/02 01:54:06;;;;;;;53.95;12.30;;;;;;;;;;5076674;28;20028;-67
2023/03/02 01:56:37;;;;;;;45.80;11.40;;;;;;;;;;5076721;28;20029;-68
2023/03/02 01:59:07;;;;;;;38.47;12.15;;;;;;;;;;5076828;28;20036;-68
2023/03/02 02:01:36;;;;;;;47.67;11.68;;;;;;;;;;5076856;28;20020;-68
2023/03/02 02:04:02;;;;;;;34.75;10.45;;;;;;;;;;5076630;28;20115;-68
2023/03/02 02:06:36;;;;;;;32.35;10.23;;;;;;;;;;5085598;28;20111;-69
2023/03/02 02:09:03;;;;;;;31.17;9.68;;;;;;;;;;5096643;28;20039;-69
2023/03/02 02:11:29;;;;;;;33.58;9.25;;;;;;;;;;5096800;28;20467;-69
2023/03/02 02:13:58;;;;;;;42.88;9.85;;;;;;;;;;5096380;28;20128;-68
2023/03/02 02:16:25;;;;;;;37.33;9.90;;;;;;;;;;5096581;28;20118;-67
2023/03/02 02:18:51;;;;;;;40.15;9.13;;;;;;;;;;5096767;28;20053;-69
2023/03/02 02:21:18;;;;;;;57.88;9.52;;;;;;;;;;5096614;28;20023;-68
2023/03/02 02:24:14;;;;;;;25.20;7.80;;;;;;;;;;5096268;28;20028;-69
2023/03/02 02:26:49;;;;;;;29.15;8.65;;;;;;;;;;5096510;28;20031;-68
2023/03/02 02:29:21;;;;;;;27.85;8.00;;;;;;;;;;5096445;28;20020;-69
2023/03/02 02:31:59;;;;;;;30.38;7.63;;;;;;;;;;5095199;28;20020;-67
2023/03/02 02:34:34;;;;;;;31.45;7.90;;;;;;;;;;5096272;28;20024;-70
2023/03/02 02:37:08;;;;;;;20.50;7.78;;;;;;;;;;5095940;28;20036;-68
2023/03/02 02:39:38;;;;;;;30.33;8.52;;;;;;;;;;5096345;28;20025;-69
2023/03/02 02:42:10;;;;;;;20.33;7.70;;;;;;;;;;5080558;28;20051;-67
2023/03/02 02:44:36;;;;;;;27.30;8.30;;;;;;;;;;5075988;28;20036;-68
2023/03/02 02:47:01;;;;;;;21.90;7.45;;;;;;;;;;5075746;28;20028;-68
2023/03/02 02:49:34;;;;;;;28.25;7.65;;;;;;;;;;5075771;28;20040;-68
2023/03/02 02:52:00;;;;;;;25.77;7.85;;;;;;;;;;5075564;28;20025;-69
2023/03/02 02:54:28;;;;;;;23.50;7.40;;;;;;;;;;5075674;28;20021;-68
2023/03/02 02:56:55;;;;;;;34.95;8.43;;;;;;;;;;5075395;28;20441;-71
2023/03/02 02:59:27;;;;;;;40.72;8.65;;;;;;;;;;5075483;28;20054;-68
2023/03/02 03:01:54;;;;;;;31.52;8.13;;;;;;;;;;5074323;28;20048;-69
2023/03/02 03:04:24;;;;;;;37.05;7.97;;;;;;;;;;5075573;28;20025;-68
2023/03/02 03:06:59;;;;;;;27.10;7.63;;;;;;;;;;5087498;28;20104;-68
2023/03/02 03:09:25;;;;;;;17.80;5.80;;;;;;;;;;5095657;28;20180;-68
2023/03/02 03:11:53;;;;;;;19.63;5.95;;;;;;;;;;5095650;28;20032;-68
2023/03/02 03:14:28;;;;;;;16.42;6.00;;;;;;;;;;5095466;28;20499;-67
2023/03/02 03:16:54;;;;;;;16.40;6.38;;;;;;;;;;5095438;28;20066;-68
2023/03/02 03:19:30;;;;;;;15.50;4.72;;;;;;;;;;5095534;28;20056;-68
2023/03/02 03:21:58;;;;;;;10.98;4.78;;;;;;;;;;5095226;28;20375;-68
2023/03/02 03:24:26;;;;;;;15.55;5.55;;;;;;;;;;5095495;28;20138;-67
2023/03/02 03:26:53;;;;;;;18.92;4.25;;;;;;;;;;5095231;28;20027;-68
2023/03/02 03:29:18;;;;;;;16.85;5.40;;;;;;;;;;5095314;28;20035;-67
2023/03/02 03:31:44;;;;;;;12.88;5.32;;;;;;;;;;5095219;28;20020;-67
2023/03/02 03:34:09;;;;;;;14.75;5.93;;;;;;;;;;5095321;28;20060;-68
2023/03/02 03:36:36;;;;;;;15.30;5.55;;;;;;;;;;5094807;28;20082;-67
2023/03/02 03:39:04;;;;;;;12.93;4.82;;;;;;;;;;5095128;28;20025;-68
2023/03/02 03:41:30;;;;;;;16.95;5.45;;;;;;;;;;5095030;28;20490;-68
2023/03/02 03:43:55;;;;;;;13.60;5.60;;;;;;;;;;5094801;28;20027;-68
2023/03/02 03:46:21;;;;;;;13.48;5.30;;;;;;;;;;5094900;28;20055;-67
2023/03/02 03:48:46;;;;;;;13.07;5.07;;;;;;;;;;5094970;28;20024;-67
2023/03/02 03:51:12;;;;;;;14.60;5.97;;;;;;;;;;5093355;28;20020;-67
2023/03/02 03:53:37;;;;;;;13.15;5.47;;;;;;;;;;5094915;28;20069;-67
2023/03/02 03:56:03;;;;;;;14.77;5.50;;;;;;;;;;5094624;28;20043;-67
2023/03/02 03:58:30;;;;;;;13.65;5.88;;;;;;;;;;5094583;28;20059;-68
2023/03/02 04:00:56;;;;;;;14.48;5.85;;;;;;;;;;5094669;28;20032;-67
2023/03/02 04:03:22;;;;;;;35.88;16.45;;;;;;;;;;5094597;28;20501;-67
2023/03/02 04:05:48;;;;;;;21.75;6.45;;;;;;;;;;5094021;28;20039;-67
2023/03/02 04:08:13;;;;;;;12.32;6.10;;;;;;;;;;5093949;28;20514;-68
2023/03/02 04:10:39;;;;;;;15.27;6.28;;;;;;;;;;5093210;28;20127;-67
2023/03/02 04:13:05;;;;;;;17.17;6.88;;;;;;;;;;5094180;28;20127;-68
2023/03/02 04:15:30;;;;;;;14.07;5.90;;;;;;;;;;5094353;28;20023;-68
2023/03/02 04:17:56;;;;;;;14.73;6.45;;;;;;;;;;5094336;28;20386;-68
2023/03/02 04:20:23;;;;;;;13.68;5.82;;;;;;;;;;5094232;28;20043;-68
2023/03/02 04:22:50;;;;;;;14.98;6.07;;;;;;;;;;5094186;28;20028;-67
2023/03/02 04:25:21;;;;;;;12.55;5.25;;;;;;;;;;5094050;28;20032;-67
2023/03/02 04:27:48;;;;;;;12.57;5.63;;;;;;;;;;5094211;28;20089;-68
2023/03/02 04:30:16;;;;;;;12.35;5.10;;;;;;;;;;5094106;28;20028;-70
2023/03/02 04:32:44;;;;;;;14.35;6.43;;;;;;;;;;5094322;28;20489;-68
2023/03/02 04:35:11;;;;;;;12.10;5.30;;;;;;;;;;5093740;28;20428;-67
2023/03/02 04:37:37;;;;;;;12.90;5.55;;;;;;;;;;5094066;28;20028;-67
2023/03/02 04:40:03;;;;;;;16.27;6.80;;;;;;;;;;5093981;28;20084;-67
2023/03/02 04:42:28;;;;;;;13.32;5.55;;;;;;;;;;5093821;28;20035;-68
2023/03/02 04:44:54;;;;;;;15.15;5.47;;;;;;;;;;5093940;28;20161;-66
2023/03/02 04:47:19;;;;;;;13.38;6.03;;;;;;;;;;5093646;28;20031;-66
2023/03/02 04:49:45;;;;;;;12.13;5.32;;;;;;;;;;5093767;28;20032;-66
2023/03/02 04:52:10;;;;;;;13.32;6.10;;;;;;;;;;5093728;28;20110;-67
2023/03/02 04:54:36;;;;;;;10.88;5.30;;;;;;;;;;5093660;28;20375;-67
2023/03/02 04:57:01;;;;;;;11.02;4.80;;;;;;;;;;5093548;28;20059;-68
2023/03/02 04:59:27;;;;;;;13.98;5.05;;;;;;;;;;5093551;28;20024;-67
2023/03/02 05:01:55;;;;;;;14.18;4.95;;;;;;;;;;5093287;28;20103;-68
2023/03/02 05:04:21;;;;;;;16.95;6.10;;;;;;;;;;5093489;28;20027;-67
2023/03/02 05:06:46;;;;;;;16.02;5.72;;;;;;;;;;5093169;28;20085;-68
2023/03/02 05:09:12;;;;;;;17.67;6.20;;;;;;;;;;5093455;28;20031;-67
2023/03/02 05:11:38;;;;;;;16.83;5.82;;;;;;;;;;5093208;28;20471;-68
2023/03/02 05:14:06;;;;;;;17.80;6.20;;;;;;;;;;5093064;28;20109;-67
2023/03/02 05:16:34;;;;;;;18.55;5.90;;;;;;;;;;5093048;28;20028;-67
2023/03/02 05:19:01;;;;;;;16.23;6.68;;;;;;;;;;5093109;28;20056;-67
2023/03/02 05:21:27;;;;;;;14.23;5.90;;;;;;;;;;5092364;28;20528;-67
2023/03/02 05:23:52;;;;;;;15.38;6.10;;;;;;;;;;5093263;28;20055;-67
2023/03/02 05:26:18;;;;;;;13.10;5.70;;;;;;;;;;5093109;28;20024;-67
2023/03/02 05:28:44;;;;;;;12.68;5.40;;;;;;;;;;5092879;28;20053;-67
2023/03/02 05:31:16;;;;;;;18.67;6.72;;;;;;;;;;5092901;28;20051;-67
2023/03/02 05:33:42;;;;;;;14.52;6.47;;;;;;;;;;5093100;28;20039;-67
2023/03/02 05:36:07;;;;;;;15.30;6.47;;;;;;;;;;5093061;28;20029;-67
2023/03/02 05:38:33;;;;;;;14.57;6.53;;;;;;;;;;5092903;28;20032;-67
2023/03/02 05:40:59;;;;;;;16.42;6.78;;;;;;;;;;5092827;28;20034;-67
2023/03/02 05:43:24;;;;;;;16.15;6.38;;;;;;;;;;5093050;28;20028;-67
2023/03/02 05:45:49;;;;;;;16.55;7.18;;;;;;;;;;5092653;28;20043;-67
2023/03/02 05:48:15;;;;;;;17.13;7.78;;;;;;;;;;5093002;28;20032;-67
2023/03/02 05:50:41;;;;;;;13.52;6.57;;;;;;;;;;5092914;28;20020;-67
2023/03/02 05:53:07;;;;;;;15.57;6.80;;;;;;;;;;5092973;28;20028;-67
2023/03/02 05:55:35;;;;;;;19.23;7.57;;;;;;;;;;5092892;28;20032;-68
2023/03/02 05:58:05;;;;;;;19.98;7.85;;;;;;;;;;5091611;28;20479;-68
2023/03/02 06:00:30;;;;;;;15.67;7.03;;;;;;;;;;5092548;28;20114;-67
2023/03/02 06:02:56;;;;;;;18.25;8.52;;;;;;;;;;5092890;28;20383;-67
2023/03/02 06:05:23;;;;;;;14.68;6.82;;;;;;;;;;5092794;28;20027;-67
2023/03/02 06:07:48;;;;;;;21.80;9.05;;;;;;;;;;5072563;28;20021;-69
2023/03/02 06:10:14;;;;;;;21.70;7.90;;;;;;;;;;5072519;28;20069;-69
2023/03/02 06:12:40;;;;;;;23.70;8.98;;;;;;;;;;5072397;28;20368;-68
2023/03/02 06:15:06;;;;;;;19.85;8.30;;;;;;;;;;5071997;28;20046;-68
2023/03/02 06:17:32;;;;;;;19.70;8.77;;;;;;;;;;5072380;28;20032;-70
2023/03/02 06:19:57;;;;;;;21.75;9.05;;;;;;;;;;5072432;28;20387;-67
2023/03/02 06:22:23;;;;;;;19.17;9.82;;;;;;;;;;5072505;28;20025;-68
2023/03/02 06:24:48;;;;;;;18.83;7.38;;;;;;;;;;5070965;28;20027;-71
2023/03/02 06:27:14;;;;;;;12.00;4.93;;;;;;;;;;5072236;28;20024;-70
2023/03/02 06:29:40;;;;;;;15.98;6.57;;;;;;;;;;5072294;28;20032;-68
2023/03/02 06:32:05;;;;;;;18.52;8.80;;;;;;;;;;5074605;28;20028;-68
2023/03/02 06:34:31;;;;;;;17.45;8.48;;;;;;;;;;5076227;28;20496;-69
2023/03/02 06:36:56;;;;;;;20.33;8.35;;;;;;;;;;5075780;28;20035;-67
2023/03/02 06:39:22;;;;;;;18.30;8.32;;;;;;;;;;5075864;28;20020;-68
2023/03/02 06:41:48;;;;;;;17.67;7.53;;;;;;;;;;5075887;28;20025;-71
2023/03/02 06:44:15;;;;;;;17.20;7.45;;;;;;;;;;5075703;28;20421;-70
2023/03/02 06:46:41;;;;;;;15.98;7.60;;;;;;;;;;5075727;28;20020;-69
2023/03/02 06:49:07;;;;;;;17.20;8.00;;;;;;;;;;5075739;28;20029;-68
2023/03/02 06:51:32;;;;;;;19.55;8.45;;;;;;;;;;5075687;28;20493;-70
2023/03/02 06:53:58;;;;;;;17.83;8.65;;;;;;;;;;5075738;28;20032;-70
2023/03/02 06:56:23;;;;;;;19.73;9.18;;;;;;;;;;5075527;28;20082;-70
2023/03/02 06:58:49;;;;;;;21.33;8.75;;;;;;;;;;5075375;28;20021;-70
2023/03/02 07:01:15;;;;;;;18.17;8.43;;;;;;;;;;5075492;28;20491;-71
2023/03/02 07:03:40;;;;;;;20.17;8.98;;;;;;;;;;5075456;28;20047;-70
2023/03/02 07:06:06;;;;;;;21.23;9.68;;;;;;;;;;5079870;28;20064;-71
2023/03/02 07:08:32;;;;;;;19.85;8.63;;;;;;;;;;5095675;28;20103;-69
2023/03/02 07:10:57;;;;;;;19.30;9.00;;;;;;;;;;5095628;28;20078;-71
2023/03/02 07:13:23;;;;;;;21.13;9.40;;;;;;;;;;5095143;28;20527;-70
2023/03/02 07:15:48;;;;;;;21.40;11.07;;;;;;;;;;5095275;28;20024;-68
2023/03/02 07:18:14;;;;;;;19.95;10.27;;;;;;;;;;5095285;28;20068;-71
2023/03/02 07:20:39;;;;;;;22.83;10.57;;;;;;;;;;5094053;28;20081;-71
2023/03/02 07:23:05;;;;;;;22.23;10.95;;;;;;;;;;5095397;28;20027;-70
2023/03/02 07:25:31;;;;;;;22.00;10.57;;;;;;;;;;5095285;28;20020;-71
2023/03/02 07:27:57;;;;;;;24.23;10.57;;;;;;;;;;5095120;28;20024;-70
2023/03/02 07:30:22;;;;;;;21.20;10.55;;;;;;;;;;5095095;28;20024;-70
2023/03/02 07:32:48;;;;;;;23.67;11.27;;;;;;;;;;5095190;28;20016;-69
2023/03/02 07:35:13;;;;;;;24.52;11.35;;;;;;;;;;5095023;28;20374;-71
2023/03/02 07:37:39;;;;;;;22.13;11.20;;;;;;;;;;5095125;28;20027;-69
2023/03/02 07:40:05;;;;;;;32.45;14.20;;;;;;;;;;5095106;28;20028;-69
2023/03/02 07:42:32;;;;;;;33.08;13.88;;;;;;;;;;5094080;28;20031;-71
2023/03/02 07:44:58;;;;;;;26.20;12.55;;;;;;;;;;5094746;28;20024;-69
2023/03/02 07:47:23;;;;;;;24.63;11.88;;;;;;;;;;5093568;28;20038;-71
2023/03/02 07:49:49;;;;;;;27.75;12.68;;;;;;;;;;5094700;28;20107;-71
2023/03/02 07:52:15;;;;;;;25.75;11.93;;;;;;;;;;5094833;28;20024;-71
2023/03/02 07:54:40;;;;;;;21.77;12.02;;;;;;;;;;5094647;28;20512;-70
2023/03/02 07:57:06;;;;;;;20.27;10.77;;;;;;;;;;5094415;28;20054;-71
2023/03/02 07:59:31;;;;;;;19.75;8.35;;;;;;;;;;5094674;28;20395;-70
2023/03/02 08:01:57;;;;;;;18.88;10.18;;;;;;;;;;5094526;28;20115;-67
2023/03/02 08:04:23;;;;;;;15.60;8.60;;;;;;;;;;5094693;28;20116;-70
2023/03/02 08:06:49;;;;;;;20.85;11.10;;;;;;;;;;5094314;28;20047;-70
2023/03/02 08:09:15;;;;;;;25.25;12.20;;;;;;;;;;5094351;28;20100;-70
2023/03/02 08:11:41;;;;;;;28.25;12.52;;;;;;;;;;5094212;28;20036;-71
2023/03/02 08:14:06;;;;;;;23.27;12.15;;;;;;;;;;5094138;28;20131;-70
2023/03/02 08:16:32;;;;;;;23.63;11.95;;;;;;;;;;5094158;28;20028;-70
2023/03/02 08:18:57;;;;;;;18.17;10.80;;;;;;;;;;5094412;28;20427;-70
2023/03/02 08:21:24;;;;;;;21.30;10.18;;;;;;;;;;5094190;28;20114;-68
2023/03/02 08:23:50;;;;;;;17.27;9.30;;;;;;;;;;5065618;28;20032;-69
2023/03/02 08:26:17;;;;;;;15.50;8.63;;;;;;;;;;5073527;28;20029;-70
2023/03/02 08:28:43;;;;;;;17.90;9.27;;;;;;;;;;5070242;28;20031;-70
2023/03/02 08:31:09;;;;;;;15.43;9.40;;;;;;;;;;5069875;28;20036;-70
2023/03/02 08:33:35;;;;;;;17.42;9.45;;;;;;;;;;5083826;28;20059;-70
2023/03/02 08:36:04;;;;;;;19.20;10.35;;;;;;;;;;5090316;28;20034;-70
2023/03/02 08:38:31;;;;;;;19.10;9.95;;;;;;;;;;5089977;28;20046;-70
2023/03/02 08:40:56;;;;;;;18.60;9.85;;;;;;;;;;5088128;28;20097;-70
2023/03/02 08:43:24;;;;;;;15.95;9.50;;;;;;;;;;5068724;28;20487;-70
2023/03/02 08:45:54;;;;;;;16.55;8.38;;;;;;;;;;5069326;28;20040;-67
2023/03/02 08:48:20;;;;;;;;;;;;;;;;;;5070827;28;20713;-69
2023/03/02 08:50:58;;;;;;;17.00;8.57;;;;;;;;;;5070294;28;19913;-70
2023/03/02 08:53:25;;;;;;;20.38;10.43;;;;;;;;;;5069412;28;20412;-71
2023/03/02 08:55:51;;;;;;;18.35;9.77;;;;;;;;;;5069024;28;20035;-68
2023/03/02 08:58:17;;;;;;;16.30;8.80;;;;;;;;;;5084451;28;20463;-69
2023/03/02 09:00:43;;;;;;;16.10;9.80;;;;;;;;;;5089361;28;20483;-69
2023/03/02 09:03:08;;;;;;;19.85;10.55;;;;;;;;;;5089176;28;20073;-69
2023/03/02 09:05:34;;;;;;;18.10;9.27;;;;;;;;;;5085866;28;20035;-70
2023/03/02 09:08:00;;;;;;;17.00;9.35;;;;;;;;;;5089810;28;20356;-68
2023/03/02 09:10:25;;;;;;;15.88;8.25;;;;;;;;;;5089072;28;20043;-70
2023/03/02 09:12:51;;;;;;;15.80;8.68;;;;;;;;;;5089473;28;20470;-70
2023/03/02 09:15:16;;;;;;;17.85;9.88;;;;;;;;;;5089730;28;20024;-70
2023/03/02 09:17:42;;;;;;;15.98;9.43;;;;;;;;;;5088019;28;20020;-69
2023/03/02 09:20:08;;;;;;;15.32;9.02;;;;;;;;;;5069036;28;20107;-72
2023/03/02 09:22:34;;;;;;;15.77;9.18;;;;;;;;;;5069432;28;20395;-71
2023/03/02 09:25:01;;;;;;;15.25;9.15;;;;;;;;;;5069064;28;20021;-70
2023/03/02 09:27:27;;;;;;;21.85;11.68;;;;;;;;;;5069915;28;20032;-69
2023/03/02 09:29:52;;;;;;;19.38;11.48;;;;;;;;;;5089814;28;20016;-69
2023/03/02 09:32:18;;;;;;;21.20;11.98;;;;;;;;;;5082540;28;20391;-70
2023/03/02 09:34:43;;;;;;;19.00;11.63;;;;;;;;;;5068829;28;20422;-70
2023/03/02 09:37:08;;;;;;;22.70;11.43;;;;;;;;;;5068883;28;20024;-70
2023/03/02 09:39:36;;;;;;;17.60;10.48;;;;;;;;;;5073045;28;20035;-68
2023/03/02 09:42:30;;;;;;;16.80;10.48;;;;;;;;;;5090161;28;20055;-70
2023/03/02 09:45:34;;;;;;;19.73;11.00;;;;;;;;;;5089555;28;20028;-70
2023/03/02 09:48:27;;;;;;;17.08;9.70;;;;;;;;;;5088527;28;20089;-68
2023/03/02 09:51:06;;;;;;;14.63;9.25;;;;;;;;;;5082500;28;20120;-70
2023/03/02 09:53:50;;;;;;;16.88;10.40;;;;;;;;;;5068742;28;20025;-68
2023/03/02 09:56:18;;;;;;;18.70;10.35;;;;;;;;;;5088515;28;20028;-68
2023/03/02 09:59:07;;;;;;;17.60;10.20;;;;;;;;;;5088455;28;20059;-71
2023/03/02 10:01:47;;;;;;;18.52;10.48;;;;;;;;;;5086930;28;20028;-68
2023/03/02 10:04:29;;;;;;;16.05;10.32;;;;;;;;;;5088007;28;20024;-71
2023/03/02 10:07:12;;;;;;;17.10;10.07;;;;;;;;;;5090361;28;20120;-67
2023/03/02 10:09:38;;;;;;;17.05;9.52;;;;;;;;;;5093636;28;20031;-69
2023/03/02 10:12:19;;;;;;;18.90;10.82;;;;;;;;;;5092969;28;20481;-67
2023/03/02 10:15:05;;;;;;;;;;;;;;;;;;5093393;28;20074;-69
2023/03/02 10:17:36;;;;;;;16.25;9.30;;;;;;;;;;5091853;28;19919;-70
2023/03/02 10:20:10;;;;;;;20.38;9.57;;;;;;;;;;5072972;28;20119;-67
2023/03/02 10:22:49;;;;;;;13.57;7.82;;;;;;;;;;5091401;28;20036;-67
2023/03/02 10:25:14;;;;;;;16.65;8.73;;;;;;;;;;5076002;28;20032;-67
2023/03/02 10:27:56;;;;;;;16.70;8.23;;;;;;;;;;5071699;28;20141;-68
2023/03/02 10:30:35;;;;;;;16.98;9.13;;;;;;;;;;5071526;28;20051;-67
2023/03/02 10:33:16;;;;;;;15.68;8.23;;;;;;;;;;5075006;28;20379;-68
2023/03/02 10:35:46;;;;;;;18.10;9.35;;;;;;;;;;5077248;28;20052;-67
2023/03/02 10:38:22;;;;;;;13.80;7.57;;;;;;;;;;5092477;28;20096;-67
2023/03/02 10:40:58;;;;;;;25.35;10.48;;;;;;;;;;5076795;28;20036;-67
2023/03/02 10:43:35;;;;;;;13.70;6.68;;;;;;;;;;5071048;28;20064;-67
2023/03/02 10:46:06;;;;;;;16.13;8.73;;;;;;;;;;5071466;28;20080;-67
2023/03/02 10:48:44;;;;;;;14.35;8.57;;;;;;;;;;5089811;28;20393;-67
2023/03/02 10:51:24;;;;;;;15.82;8.82;;;;;;;;;;5074139;28;20028;-69
2023/03/02 10:54:04;;;;;;;16.83;9.50;;;;;;;;;;5079552;28;20028;-67
2023/03/02 10:56:31;;;;;;;22.02;9.32;;;;;;;;;;5068160;28;20093;-69
2023/03/02 10:59:02;;;;;;;18.58;9.07;;;;;;;;;;5091851;28;20119;-68
2023/03/02 11:01:27;;;;;;;;;;;;;;;;;;5093352;28;20034;-68
2023/03/02 11:03:55;;;;;;;21.73;10.15;;;;;;;;;;5081499;28;19920;-67
2023/03/02 11:06:21;;;;;;;15.52;8.82;;;;;;;;;;5079127;28;20030;-67
2023/03/02 11:09:04;;;;;;;19.98;9.27;;;;;;;;;;5082224;28;20357;-67
2023/03/02 11:11:30;;;;;;;15.85;9.75;;;;;;;;;;5089922;28;20027;-67
2023/03/02 11:14:13;;;;;;;17.58;9.93;;;;;;;;;;5091365;28;20040;-67
2023/03/02 11:16:38;;;;;;;17.85;9.38;;;;;;;;;;5086667;28;20024;-67
2023/03/02 11:19:13;;;;;;;15.40;8.75;;;;;;;;;;5079236;28;20116;-68
2023/03/02 11:22:10;;;;;;;17.05;9.68;;;;;;;;;;5092217;28;20028;-68
2023/03/02 11:24:52;;;;;;;17.80;8.50;;;;;;;;;;5090813;28;20035;-68
2023/03/02 11:27:30;;;;;;;14.27;9.20;;;;;;;;;;5081077;28;20101;-68
2023/03/02 11:30:01;;;;;;;17.70;9.52;;;;;;;;;;5090458;28;20032;-67
2023/03/02 11:32:35;;;;;;;14.98;8.75;;;;;;;;;;5092454;28;20028;-67
2023/03/02 11:35:01;;;;;;;15.35;9.45;;;;;;;;;;5073085;28;20028;-68
2023/03/02 11:37:38;;;;;;;10.57;6.57;;;;;;;;;;5074105;28;20028;-67
2023/03/02 11:40:28;;;;;;;12.32;7.60;;;;;;;;;;5090246;28;20034;-67
2023/03/02 11:42:57;;;;;;;15.80;9.32;;;;;;;;;;5090137;28;20047;-67
2023/03/02 11:45:27;;;;;;;18.40;9.55;;;;;;;;;;5083993;28;20507;-70
2023/03/02 11:48:15;;;;;;;12.23;7.28;;;;;;;;;;5090253;28;20040;-67
2023/03/02 11:50:53;;;;;;;15.80;9.45;;;;;;;;;;5080616;28;20093;-67
2023/03/02 11:53:20;;;;;;;18.55;10.52;;;;;;;;;;5090379;28;20387;-67
2023/03/02 11:55:48;;;;;;;16.70;9.77;;;;;;;;;;5089686;28;20114;-68
2023/03/02 11:58:20;;;;;;;18.08;8.25;;;;;;;;;;5091020;28;20028;-70
2023/03/02 12:00:47;;;;;;;12.57;7.78;;;;;;;;;;5071511;28;20017;-70
2023/03/02 12:03:15;;;;;;;33.05;8.95;;;;;;;;;;5070381;28;20033;-68
2023/03/02 12:06:06;;;;;;;23.60;9.27;;;;;;;;;;5073196;28;20055;-68
2023/03/02 12:08:40;;;;;;;37.63;9.52;;;;;;;;;;5068034;28;20553;-71
2023/03/02 12:11:17;;;;;;;17.23;8.68;;;;;;;;;;5070562;28;20032;-67
2023/03/02 12:13:58;;;;;;;13.00;7.75;;;;;;;;;;5070313;28;20507;-67
2023/03/02 12:16:39;;;;;;;13.50;8.13;;;;;;;;;;5070114;28;20041;-68
2023/03/02 12:19:11;;;;;;;19.20;9.40;;;;;;;;;;5078795;28;20613;-69
2023/03/02 12:21:42;;;;;;;11.50;7.75;;;;;;;;;;5089531;28;20035;-66
2023/03/02 12:24:24;;;;;;;14.85;8.30;;;;;;;;;;5076916;28;20033;-69
2023/03/02 12:27:11;;;;;;;13.02;8.05;;;;;;;;;;5072980;28;20390;-70
2023/03/02 12:29:45;;;;;;;14.73;7.70;;;;;;;;;;5080360;28;20530;-70
2023/03/02 12:32:26;;;;;;;18.05;9.20;;;;;;;;;;5082174;28;20376;-70
2023/03/02 12:35:06;;;;;;;21.00;9.02;;;;;;;;;;5075739;28;20035;-68
2023/03/02 12:37:31;;;;;;;30.85;9.82;;;;;;;;;;5081326;28;20032;-70
2023/03/02 12:40:18;;;;;;;25.00;7.85;;;;;;;;;;5089384;28;20035;-70
2023/03/02 12:42:59;;;;;;;12.48;7.30;;;;;;;;;;5090407;28;20035;-70
2023/03/02 12:45:24;;;;;;;10.18;7.15;;;;;;;;;;5089754;28;20024;-71
2023/03/02 12:47:59;;;;;;;25.23;8.13;;;;;;;;;;5089391;28;20376;-71
2023/03/02 12:50:29;;;;;;;17.08;8.38;;;;;;;;;;5069906;28;20021;-71
2023/03/02 12:53:00;;;;;;;15.00;7.80;;;;;;;;;;5069717;28;20028;-71
2023/03/02 12:55:25;;;;;;;11.23;7.35;;;;;;;;;;5083177;28;20027;-71
2023/03/02 12:57:57;;;;;;;19.70;7.40;;;;;;;;;;5089328;28;20028;-67
2023/03/02 13:00:26;;;;;;;18.85;7.50;;;;;;;;;;5089363;28;20024;-71
2023/03/02 13:02:55;;;;;;;14.98;8.20;;;;;;;;;;5089560;28;20372;-68
2023/03/02 13:05:23;;;;;;;13.43;7.38;;;;;;;;;;5089002;28;20031;-68
2023/03/02 13:07:59;;;;;;;17.85;7.72;;;;;;;;;;5088111;28;20169;-70
2023/03/02 13:10:34;;;;;;;18.33;8.30;;;;;;;;;;5090087;28;20487;-70
2023/03/02 13:13:01;;;;;;;22.70;7.55;;;;;;;;;;5074581;28;20032;-70
2023/03/02 13:15:27;;;;;;;16.13;6.85;;;;;;;;;;5073600;28;20428;-68
2023/03/02 13:17:55;;;;;;;15.88;7.25;;;;;;;;;;5069095;28;20165;-67
2023/03/02 13:20:26;;;;;;;11.20;6.63;;;;;;;;;;5086027;28;20052;-66
2023/03/02 13:22:51;;;;;;;10.73;6.50;;;;;;;;;;5088948;28;20102;-67
2023/03/02 13:25:25;;;;;;;17.13;8.27;;;;;;;;;;5089373;28;20119;-67
2023/03/02 13:27:55;;;;;;;18.88;7.63;;;;;;;;;;5089411;28;20098;-66
2023/03/02 13:30:24;;;;;;;16.35;7.55;;;;;;;;;;5082644;28;20033;-65
2023/03/02 13:32:50;;;;;;;11.13;7.55;;;;;;;;;;5070022;28;20077;-66
2023/03/02 13:35:25;;;;;;;16.08;6.68;;;;;;;;;;5075492;28;20020;-66
2023/03/02 13:38:00;;;;;;;12.90;6.90;;;;;;;;;;5088806;28;20028;-66
2023/03/02 13:40:26;;;;;;;10.48;6.72;;;;;;;;;;5067628;28;20047;-67
2023/03/02 13:42:52;;;;;;;12.90;7.22;;;;;;;;;;5088736;28;20028;-68
2023/03/02 13:45:31;;;;;;;12.05;7.40;;;;;;;;;;5088828;28;20025;-66
2023/03/02 13:48:14;;;;;;;20.67;7.10;;;;;;;;;;5088489;28;20394;-66
2023/03/02 13:50:39;;;;;;;15.02;7.00;;;;;;;;;;5072946;28;20425;-68
2023/03/02 13:53:05;;;;;;;11.65;7.13;;;;;;;;;;5085638;28;20024;-68
2023/03/02 13:55:32;;;;;;;10.57;7.03;;;;;;;;;;5088958;28;20439;-67
2023/03/02 13:57:59;;;;;;;12.90;7.10;;;;;;;;;;5070276;28;20036;-67
2023/03/02 14:00:30;;;;;;;11.23;7.13;;;;;;;;;;5068040;28;20039;-67
2023/03/02 14:02:55;;;;;;;13.63;7.45;;;;;;;;;;5088242;28;20067;-69
2023/03/02 14:05:25;;;;;;;12.63;7.30;;;;;;;;;;5088534;28;20052;-67
2023/03/02 14:07:50;;;;;;;13.82;7.22;;;;;;;;;;5087049;28;20035;-68
2023/03/02 14:10:18;;;;;;;13.13;7.70;;;;;;;;;;5083024;28;20036;-67
2023/03/02 14:13:05;;;;;;;20.60;8.73;;;;;;;;;;5084083;28;20058;-67
2023/03/02 14:15:30;;;;;;;16.38;8.52;;;;;;;;;;5075859;28;20099;-65
2023/03/02 14:17:56;;;;;;;15.07;8.68;;;;;;;;;;5076386;28;20039;-67
2023/03/02 14:20:21;;;;;;;17.65;8.25;;;;;;;;;;5068977;28;20459;-66
2023/03/02 14:22:47;;;;;;;13.55;6.95;;;;;;;;;;5070067;28;20055;-67
2023/03/02 14:25:13;;;;;;;28.20;7.68;;;;;;;;;;5076663;28;20463;-66
2023/03/02 14:27:40;;;;;;;17.83;7.55;;;;;;;;;;5076646;28;20080;-67
2023/03/02 14:30:19;;;;;;;20.98;8.88;;;;;;;;;;5068391;28;20033;-68
2023/03/02 14:32:45;;;;;;;16.95;8.43;;;;;;;;;;5068381;28;20601;-67
2023/03/02 14:35:14;;;;;;;18.27;8.23;;;;;;;;;;5087676;28;20036;-67
2023/03/02 14:37:43;;;;;;;19.95;8.82;;;;;;;;;;5088042;28;20076;-68
2023/03/02 14:40:26;;;;;;;11.95;8.02;;;;;;;;;;5078197;28;20020;-67